createdAt,value
2024-02-13T00:01:06.512Z,100006.69
2024-02-13T00:03:33.321Z,99999.50
2024-02-13T00:06:00.211Z,100001.66
2024-02-13T00:08:33.277Z,99994.34
2024-02-13T00:11:10.977Z,100000.00
2024-02-13T00:13:37.826Z,99999.34
2024-02-13T00:16:04.586Z,100004.53
2024-02-13T00:18:31.396Z,100004.84
2024-02-13T00:20:58.236Z,100006.50
2024-02-13T00:23:25.133Z,100002.38
2024-02-13T00:25:51.920Z,100009.38
2024-02-13T00:28:18.762Z,100005.84
2024-02-13T00:30:45.553Z,100009.38
2024-02-13T00:33:12.425Z,99999.19
2024-02-13T00:35:39.327Z,99986.66
2024-02-13T00:38:06.107Z,99979.13
2024-02-13T00:40:32.892Z,99980.00
2024-02-13T00:42:59.648Z,99989.31
2024-02-13T00:45:26.510Z,99986.81
2024-02-13T00:47:53.397Z,99996.03
2024-02-13T00:50:20.299Z,99987.31
2024-02-13T00:52:47.111Z,100001.69
2024-02-13T00:55:13.926Z,99996.69
2024-02-13T00:57:40.814Z,100000.88
2024-02-13T01:00:07.763Z,99995.34
2024-02-13T01:02:34.585Z,99997.50
2024-02-13T01:05:01.435Z,99995.84
2024-02-13T01:07:28.180Z,99988.00
2024-02-13T01:09:54.983Z,99984.34
2024-02-13T01:12:21.800Z,99978.00
2024-02-13T01:14:48.647Z,99972.97
2024-02-13T01:17:15.506Z,99962.97
2024-02-13T01:19:42.351Z,99966.66
2024-02-13T01:22:09.135Z,99970.97
2024-02-13T01:24:35.934Z,99969.97
2024-02-13T01:27:02.740Z,99970.47
2024-02-13T01:29:29.589Z,99969.59
2024-02-13T01:31:56.407Z,99971.97
2024-02-13T01:34:23.241Z,99986.47
2024-02-13T01:36:50.119Z,99994.03
2024-02-13T01:39:16.930Z,99986.34
2024-02-13T01:41:43.792Z,99976.31
2024-02-13T01:44:10.778Z,99982.44
2024-02-13T01:46:37.711Z,99979.63
2024-02-13T01:49:04.892Z,99964.91
2024-02-13T01:51:31.852Z,99962.91
2024-02-13T01:53:58.741Z,99964.56
2024-02-13T01:56:25.702Z,99968.56
2024-02-13T01:58:52.517Z,99967.19
2024-02-13T02:01:19.285Z,99968.53
2024-02-13T02:03:46.102Z,99960.81
2024-02-13T02:06:13.031Z,99966.00
2024-02-13T02:08:39.884Z,99957.63
2024-02-13T02:11:06.787Z,99953.94
2024-02-13T02:13:33.600Z,99943.72
2024-02-13T02:16:00.391Z,99941.72
2024-02-13T02:18:27.485Z,99931.72
2024-02-13T02:20:54.699Z,99942.06
2024-02-13T02:23:21.735Z,99931.03
2024-02-13T02:25:48.547Z,99928.03
2024-02-13T02:28:15.343Z,99920.34
2024-02-13T02:30:42.105Z,99919.97
2024-02-13T02:33:09.009Z,99904.75
2024-02-13T02:35:36.109Z,99911.28
2024-02-13T02:38:02.906Z,99903.56
2024-02-13T02:40:29.704Z,99899.91
2024-02-13T02:42:56.646Z,99892.53
2024-02-13T02:45:23.725Z,99903.75
2024-02-13T02:47:50.594Z,99905.59
2024-02-13T02:50:17.497Z,99894.88
2024-02-13T02:52:44.336Z,99892.38
2024-02-13T02:55:11.131Z,99896.69
2024-02-13T02:57:37.901Z,99888.13
2024-02-13T03:00:04.771Z,99881.13
2024-02-13T03:02:31.649Z,99882.94
2024-02-13T03:04:58.472Z,99890.13
2024-02-13T03:07:25.336Z,99888.84
2024-02-13T03:09:52.144Z,99874.06
2024-02-13T03:12:18.939Z,99874.06
2024-02-13T03:14:45.885Z,99878.13
2024-02-13T03:17:12.821Z,99871.59
2024-02-13T03:19:39.794Z,99866.25
2024-02-13T03:22:06.651Z,99863.75
2024-02-13T03:24:33.421Z,99860.53
2024-02-13T03:27:00.179Z,99859.72
2024-02-13T03:29:27.030Z,99856.03
2024-02-13T03:31:53.836Z,99853.00
2024-02-13T03:34:20.780Z,99842.16
2024-02-13T03:36:47.650Z,99831.63
2024-02-13T03:39:14.435Z,99832.22
2024-02-13T03:41:41.269Z,99823.56
2024-02-13T03:44:08.088Z,99824.88
2024-02-13T03:46:34.911Z,99843.44
2024-02-13T03:49:01.843Z,99841.75
2024-02-13T03:51:28.742Z,99840.59
2024-02-13T03:53:55.601Z,99845.59
2024-02-13T03:56:22.470Z,99842.94
2024-02-13T03:58:49.256Z,99842.94
2024-02-13T04:01:16.057Z,99844.63
2024-02-13T04:03:42.918Z,99844.63
2024-02-13T04:06:09.923Z,99831.03
2024-02-13T04:08:36.850Z,99822.19
2024-02-13T04:11:03.678Z,99817.53
2024-02-13T04:13:30.519Z,99819.34
2024-02-13T04:15:57.436Z,99819.19
2024-02-13T04:18:24.319Z,99820.50
2024-02-13T04:20:51.219Z,99830.75
2024-02-13T04:23:18.152Z,99826.84
2024-02-13T04:25:45.007Z,99831.22
2024-02-13T04:28:11.815Z,99831.56
2024-02-13T04:30:38.632Z,99827.88
2024-02-13T04:33:05.508Z,99832.03
2024-02-13T04:35:32.414Z,99820.50
2024-02-13T04:37:59.296Z,99822.19
2024-02-13T04:40:26.142Z,99817.28
2024-02-13T04:42:53.056Z,99818.47
2024-02-13T04:45:19.860Z,99824.47
2024-02-13T04:47:46.800Z,99829.84
2024-02-13T04:50:15.674Z,99831.22
2024-02-13T04:52:43.380Z,99838.56
2024-02-13T04:55:10.214Z,99831.22
2024-02-13T04:57:37.075Z,99829.19
2024-02-13T05:00:03.954Z,99830.47
2024-02-13T05:02:30.795Z,99838.22
2024-02-13T05:04:57.717Z,99840.22
2024-02-13T05:07:24.788Z,99848.19
2024-02-13T05:09:51.715Z,99848.56
2024-02-13T05:12:18.611Z,99852.25
2024-02-13T05:14:45.438Z,99852.63
2024-02-13T05:17:12.388Z,99846.19
2024-02-13T05:19:39.228Z,99851.88
2024-02-13T05:22:06.076Z,99850.59
2024-02-13T05:24:32.902Z,99846.91
2024-02-13T05:26:59.734Z,99849.22
2024-02-13T05:29:26.612Z,99855.00
2024-02-13T05:31:53.453Z,99852.97
2024-02-13T05:34:20.337Z,99863.66
2024-02-13T05:36:47.375Z,99865.63
2024-02-13T05:39:14.229Z,99871.00
2024-02-13T05:41:41.139Z,99865.31
2024-02-13T05:44:08.010Z,99875.22
2024-02-13T05:46:34.822Z,99878.06
2024-02-13T05:49:01.862Z,99877.22
2024-02-13T05:51:28.710Z,99889.72
2024-02-13T05:53:55.644Z,99894.72
2024-02-13T05:56:27.322Z,99918.38
2024-02-13T05:58:55.244Z,99916.56
2024-02-13T06:01:22.175Z,99929.28
2024-02-13T06:03:49.091Z,99926.72
2024-02-13T06:06:16.201Z,99934.81
2024-02-13T06:08:43.182Z,99931.84
2024-02-13T06:11:10.147Z,99944.56
2024-02-13T06:13:36.993Z,99943.56
2024-02-13T06:16:03.816Z,99943.53
2024-02-13T06:18:30.769Z,99944.31
2024-02-13T06:20:57.866Z,99936.25
2024-02-13T06:23:24.814Z,99939.16
2024-02-13T06:25:51.634Z,99945.88
2024-02-13T06:28:32.016Z,99940.91
2024-02-13T06:30:58.901Z,99935.53
2024-02-13T06:33:25.809Z,99927.84
2024-02-13T06:35:52.761Z,99928.22
2024-02-13T06:38:19.708Z,99938.06
2024-02-13T06:40:46.509Z,99932.56
2024-02-13T06:43:13.326Z,99930.88
2024-02-13T06:45:40.189Z,99943.25
2024-02-13T06:48:07.120Z,99952.28
2024-02-13T06:50:34.036Z,99948.97
2024-02-13T06:53:00.899Z,99953.47
2024-02-13T06:55:27.754Z,99961.34
2024-02-13T06:57:54.570Z,99965.03
2024-02-13T07:00:21.374Z,99966.69
2024-02-13T07:02:48.219Z,99965.03
2024-02-13T07:05:15.105Z,99961.34
2024-02-13T07:07:47.257Z,99961.66
2024-02-13T07:10:15.746Z,99966.69
2024-02-13T07:12:43.041Z,99971.69
2024-02-13T07:15:10.280Z,99961.34
2024-02-13T07:17:48.389Z,99966.69
2024-02-13T07:20:23.131Z,99971.38
2024-02-13T07:22:50.019Z,99968.69
2024-02-13T07:25:16.952Z,99961.66
2024-02-13T07:27:43.779Z,99964.66
2024-02-13T07:30:10.558Z,99964.66
2024-02-13T07:32:37.456Z,99966.00
2024-02-13T07:35:04.361Z,99968.34
2024-02-13T07:37:31.167Z,99971.03
2024-02-13T07:39:57.983Z,99970.38
2024-02-13T07:42:24.810Z,99977.41
2024-02-13T07:44:51.613Z,99981.38
2024-02-13T07:47:18.487Z,99983.25
2024-02-13T07:49:45.345Z,99982.38
2024-02-13T07:52:12.179Z,99989.06
2024-02-13T07:54:38.954Z,99983.53
2024-02-13T07:57:05.752Z,99989.06
2024-02-13T07:59:32.604Z,99988.06
2024-02-13T08:01:59.423Z,99994.44
2024-02-13T08:04:26.284Z,100006.81
2024-02-13T08:06:53.237Z,100005.13
2024-02-13T08:09:20.135Z,100007.44
2024-02-13T08:11:46.966Z,100017.16
2024-02-13T08:14:13.949Z,100025.34
2024-02-13T08:16:40.786Z,100020.84
2024-02-13T08:19:07.686Z,100020.47
2024-02-13T08:21:34.533Z,100024.16
2024-02-13T08:24:01.443Z,100019.28
2024-02-13T08:26:28.325Z,100022.13
2024-02-13T08:28:55.154Z,100024.16
2024-02-13T08:31:22.028Z,100029.50
2024-02-13T08:33:49.244Z,100037.03
2024-02-13T08:36:16.424Z,100043.22
2024-02-13T08:38:43.401Z,100045.72
2024-02-13T08:41:10.278Z,100035.84
2024-02-13T08:43:37.059Z,100041.19
2024-02-13T08:46:03.925Z,100042.84
2024-02-13T08:48:30.960Z,100036.69
2024-02-13T08:50:58.078Z,100047.19
2024-02-13T08:53:24.989Z,100039.16
2024-02-13T08:55:51.780Z,100043.53
2024-02-13T08:58:18.562Z,100045.53
2024-02-13T09:00:45.362Z,100046.56
2024-02-13T09:03:12.205Z,100050.41
2024-02-13T09:05:39.176Z,100052.59
2024-02-13T09:08:06.055Z,100047.25
2024-02-13T09:10:33.284Z,100045.56
2024-02-13T09:13:00.083Z,100041.25
2024-02-13T09:15:26.920Z,100046.94
2024-02-13T09:17:53.899Z,100054.97
2024-02-13T09:20:20.845Z,100053.66
2024-02-13T09:22:47.674Z,100053.66
2024-02-13T09:25:14.515Z,100056.03
2024-02-13T09:27:41.330Z,100056.34
2024-02-13T09:30:08.203Z,100069.72
2024-02-13T09:32:35.004Z,100073.06
2024-02-13T09:35:01.952Z,100082.78
2024-02-13T09:37:28.817Z,100072.78
2024-02-13T09:39:55.605Z,100071.06
2024-02-13T09:42:22.392Z,100064.38
2024-02-13T09:44:49.305Z,100065.38
2024-02-13T09:47:16.208Z,100075.75
2024-02-13T09:49:44.550Z,100082.78
2024-02-13T09:52:11.669Z,100078.78
2024-02-13T09:54:38.485Z,100083.13
2024-02-13T09:57:05.332Z,100092.16
2024-02-13T09:59:32.209Z,100086.13
2024-02-13T10:01:59.043Z,100080.47
2024-02-13T10:04:25.885Z,100083.50
2024-02-13T10:06:52.956Z,100083.50
2024-02-13T10:09:19.949Z,100084.16
2024-02-13T10:11:46.820Z,100093.19
2024-02-13T10:14:13.702Z,100081.50
2024-02-13T10:16:40.547Z,100091.53
2024-02-13T10:19:07.481Z,100084.53
2024-02-13T10:21:34.366Z,100092.69
2024-02-13T10:24:01.265Z,100091.19
2024-02-13T10:26:28.210Z,100088.53
2024-02-13T10:28:55.040Z,100092.22
2024-02-13T10:31:21.837Z,100094.88
2024-02-13T10:33:48.733Z,100098.88
2024-02-13T10:36:15.649Z,100095.41
2024-02-13T10:38:42.499Z,100099.06
2024-02-13T10:41:09.355Z,100094.53
2024-02-13T10:43:36.149Z,100097.91
2024-02-13T10:46:03.003Z,100092.56
2024-02-13T10:48:29.959Z,100092.88
2024-02-13T10:50:56.983Z,100103.94
2024-02-13T10:53:23.903Z,100100.91
2024-02-13T10:55:50.689Z,100096.56
2024-02-13T10:58:24.472Z,100094.03
2024-02-13T11:00:55.526Z,100093.56
2024-02-13T11:03:22.411Z,100099.59
2024-02-13T11:05:49.278Z,100095.22
2024-02-13T11:08:16.202Z,100103.06
2024-02-13T11:10:43.063Z,100114.63
2024-02-13T11:13:09.867Z,100102.25
2024-02-13T11:15:36.692Z,100105.91
2024-02-13T11:18:03.615Z,100104.25
2024-02-13T11:20:30.552Z,100101.25
2024-02-13T11:22:57.480Z,100100.09
2024-02-13T11:25:24.390Z,100090.88
2024-02-13T11:27:51.247Z,100094.56
2024-02-13T11:30:18.203Z,100087.53
2024-02-13T11:32:45.199Z,100088.91
2024-02-13T11:35:12.610Z,100100.91
2024-02-13T11:37:39.534Z,100085.22
2024-02-13T11:40:06.371Z,100088.56
2024-02-13T11:42:33.207Z,100092.22
2024-02-13T11:45:02.306Z,100083.84
2024-02-13T11:47:29.449Z,100081.84
2024-02-13T11:49:56.542Z,100081.19
2024-02-13T11:52:23.437Z,100074.53
2024-02-13T11:54:50.237Z,100084.88
2024-02-13T11:57:17.036Z,100072.50
2024-02-13T11:59:44.307Z,100074.53
2024-02-13T12:02:11.428Z,100078.22
2024-02-13T12:04:38.297Z,100062.81
2024-02-13T12:07:05.251Z,100067.16
2024-02-13T12:09:32.072Z,100061.81
2024-02-13T12:11:58.917Z,100072.84
2024-02-13T12:14:26.388Z,100064.16
2024-02-13T12:16:53.929Z,100050.25
2024-02-13T12:19:20.782Z,100049.44
2024-02-13T12:21:47.598Z,100049.09
2024-02-13T12:24:14.488Z,100049.78
2024-02-13T12:26:41.354Z,100046.94
2024-02-13T12:29:08.227Z,100043.75
2024-02-13T12:31:35.032Z,100039.25
2024-02-13T12:34:01.992Z,100038.41
2024-02-13T12:36:28.978Z,100037.38
2024-02-13T12:38:55.813Z,100039.06
2024-02-13T12:41:22.643Z,100032.72
2024-02-13T12:43:49.618Z,100030.34
2024-02-13T12:46:16.466Z,100033.22
2024-02-13T12:48:43.349Z,100029.19
2024-02-13T12:51:11.301Z,100029.19
2024-02-13T12:53:38.721Z,100026.00
2024-02-13T12:56:05.590Z,100027.34
2024-02-13T12:58:32.392Z,100012.78
2024-02-13T13:00:59.237Z,100007.91
2024-02-13T13:03:26.074Z,100002.25
2024-02-13T13:05:52.967Z,99994.88
2024-02-13T13:08:19.894Z,99994.50
2024-02-13T13:10:46.715Z,99992.53
2024-02-13T13:13:13.543Z,99992.66
2024-02-13T13:15:40.404Z,99999.56
2024-02-13T13:18:08.377Z,100002.38
2024-02-13T13:20:35.825Z,99998.19
2024-02-13T13:23:02.715Z,99996.69
2024-02-13T13:25:29.590Z,99993.13
2024-02-13T13:27:56.416Z,99990.78
2024-02-13T13:30:23.453Z,99975.75
2024-02-13T13:32:50.560Z,99979.41
2024-02-13T13:35:17.514Z,99974.34
2024-02-13T13:37:44.337Z,99974.69
2024-02-13T13:40:11.174Z,99979.19
2024-02-13T13:42:38.010Z,99975.00
2024-02-13T13:45:04.843Z,99980.03
2024-02-13T13:47:31.732Z,99981.00
2024-02-13T13:49:58.559Z,99975.81
2024-02-13T13:52:25.379Z,99976.94
2024-02-13T13:54:52.191Z,99968.59
2024-02-13T13:57:19.377Z,99964.56
2024-02-13T13:59:46.194Z,99962.22
2024-02-13T14:02:12.992Z,99959.34
2024-02-13T14:04:39.822Z,99966.19
2024-02-13T14:07:06.688Z,99967.19
2024-02-13T14:09:33.517Z,99954.13
2024-02-13T14:12:00.382Z,99959.13
2024-02-13T14:14:27.270Z,99955.41
2024-02-13T14:16:54.131Z,99954.72
2024-02-13T14:19:21.066Z,99953.06
2024-02-13T14:21:47.938Z,99946.31
2024-02-13T14:24:14.783Z,99951.03
2024-02-13T14:26:41.700Z,99946.13
2024-02-13T14:29:08.568Z,99949.47
2024-02-13T14:31:35.507Z,99944.59
2024-02-13T14:34:02.933Z,99951.25
2024-02-13T14:36:29.798Z,99945.72
2024-02-13T14:38:56.748Z,99943.88
2024-02-13T14:41:23.756Z,99943.50
2024-02-13T14:43:50.557Z,99931.44
2024-02-13T14:46:17.354Z,99941.81
2024-02-13T14:48:47.729Z,99947.09
2024-02-13T14:51:15.031Z,99942.41
2024-02-13T14:53:41.894Z,99944.06
2024-02-13T14:56:08.828Z,99948.25
2024-02-13T14:58:39.505Z,99939.81
2024-02-13T15:01:06.888Z,99948.97
2024-02-13T15:03:33.742Z,99956.00
2024-02-13T15:06:00.676Z,99948.63
2024-02-13T15:08:27.752Z,99948.63
2024-02-13T15:10:54.583Z,99949.63
2024-02-13T15:13:21.432Z,99951.50
2024-02-13T15:15:50.684Z,99952.31
2024-02-13T15:18:17.745Z,99955.28
2024-02-13T15:20:45.042Z,99956.31
2024-02-13T15:23:12.033Z,99956.59
2024-02-13T15:25:38.837Z,99961.59
2024-02-13T15:28:05.628Z,99963.25
2024-02-13T15:30:34.414Z,99957.50
2024-02-13T15:33:02.771Z,99960.88
2024-02-13T15:35:29.734Z,99961.50
2024-02-13T15:37:56.589Z,99963.16
2024-02-13T15:40:23.441Z,99968.16
2024-02-13T15:42:50.252Z,99970.50
2024-02-13T15:45:17.054Z,99977.50
2024-02-13T15:47:44.030Z,99977.59
2024-02-13T15:50:10.888Z,99972.72
2024-02-13T15:52:37.742Z,99972.34
2024-02-13T15:55:04.567Z,99969.94
2024-02-13T15:57:31.415Z,99962.59
2024-02-13T15:59:58.214Z,99967.56
2024-02-13T16:02:25.040Z,99976.25
2024-02-13T16:04:51.834Z,99972.22
2024-02-13T16:07:20.616Z,99978.59
2024-02-13T16:09:47.973Z,99976.91
2024-02-13T16:12:14.796Z,99979.59
2024-02-13T16:14:41.661Z,99987.00
2024-02-13T16:17:08.585Z,99989.03
2024-02-13T16:19:35.434Z,100001.81
2024-02-13T16:22:02.284Z,99996.06
2024-02-13T16:24:29.122Z,100004.13
2024-02-13T16:26:55.962Z,100008.44
2024-02-13T16:29:22.806Z,100008.44
2024-02-13T16:31:49.725Z,100002.06
2024-02-13T16:34:16.741Z,100006.78
2024-02-13T16:36:43.685Z,100000.16
2024-02-13T16:39:10.535Z,100008.19
2024-02-13T16:41:37.495Z,100010.88
2024-02-13T16:44:04.309Z,100011.19
2024-02-13T16:46:31.086Z,100014.88
2024-02-13T16:48:58.056Z,100016.09
2024-02-13T16:51:24.942Z,100019.78
2024-02-13T16:53:51.889Z,100022.16
2024-02-13T16:56:18.912Z,100025.41
2024-02-13T16:58:45.840Z,100026.97
2024-02-13T17:01:12.809Z,100025.31
2024-02-13T17:03:39.715Z,100035.19
2024-02-13T17:06:06.738Z,100037.59
2024-02-13T17:08:33.707Z,100044.25
2024-02-13T17:11:00.576Z,100038.53
2024-02-13T17:13:27.418Z,100041.50
2024-02-13T17:15:54.224Z,100039.47
2024-02-13T17:18:21.227Z,100042.44
2024-02-13T17:23:14.869Z,100052.81
2024-02-13T17:25:41.675Z,100059.47
2024-02-13T17:28:08.521Z,100057.81
2024-02-13T17:30:35.322Z,100057.47
2024-02-13T17:33:03.154Z,100060.16
2024-02-13T17:35:30.231Z,100064.16
2024-02-13T17:37:57.062Z,100071.19
2024-02-13T17:40:23.885Z,100080.25
2024-02-13T17:42:50.694Z,100067.63
2024-02-13T17:45:17.487Z,100077.38
2024-02-13T17:47:44.388Z,100078.00
2024-02-13T17:50:11.369Z,100082.41
2024-02-13T17:52:38.211Z,100079.06
2024-02-13T17:55:08.523Z,100090.06
2024-02-13T17:57:36.908Z,100095.22
2024-02-13T18:00:03.914Z,100099.19
2024-02-13T18:02:30.918Z,100112.16
2024-02-13T18:04:57.747Z,100118.91
2024-02-13T18:07:24.604Z,100110.50
2024-02-13T18:09:51.402Z,100115.53
2024-02-13T18:12:18.199Z,100116.66
2024-02-13T18:14:45.052Z,100125.16
2024-02-13T18:17:11.858Z,100125.47
2024-02-13T18:19:38.709Z,100123.44
2024-02-13T18:22:05.698Z,100127.44
2024-02-13T18:24:32.567Z,100129.81
2024-02-13T18:26:59.416Z,100132.50
2024-02-13T18:29:26.348Z,100133.88
2024-02-13T18:31:53.169Z,100132.84
2024-02-13T18:34:20.101Z,100144.59
2024-02-13T18:36:46.941Z,100144.25
2024-02-13T18:39:13.752Z,100150.13
2024-02-13T18:41:40.560Z,100148.28
2024-02-13T18:44:07.338Z,100144.94
2024-02-13T18:46:34.169Z,100154.00
2024-02-13T18:49:01.082Z,100158.03
2024-02-13T18:51:28.033Z,100145.53
2024-02-13T18:53:54.842Z,100148.97
2024-02-13T18:56:21.724Z,100149.34
2024-02-13T18:58:48.569Z,100159.09
2024-02-13T19:01:15.410Z,100167.84
2024-02-13T19:03:42.267Z,100173.84
2024-02-13T19:06:09.201Z,100169.81
2024-02-13T19:08:36.167Z,100175.19
2024-02-13T19:11:03.040Z,100171.53
2024-02-13T19:13:29.826Z,100178.56
2024-02-13T19:15:56.695Z,100172.19
2024-02-13T19:18:23.711Z,100179.09
2024-02-13T19:20:50.686Z,100173.88
2024-02-13T19:23:17.553Z,100174.22
2024-02-13T19:25:44.371Z,100185.28
2024-02-13T19:28:11.166Z,100183.78
2024-02-13T19:30:37.980Z,100191.69
2024-02-13T19:33:04.989Z,100186.25
2024-02-13T19:35:31.828Z,100192.16
2024-02-13T19:37:58.623Z,100194.50
2024-02-13T19:40:25.492Z,100186.69
2024-02-13T19:42:52.332Z,100203.13
2024-02-13T19:45:19.150Z,100193.78
2024-02-13T19:47:46.006Z,100196.34
2024-02-13T19:50:12.909Z,100197.91
2024-02-13T19:52:39.770Z,100194.91
2024-02-13T19:55:06.729Z,100188.16
2024-02-13T19:57:33.578Z,100196.97
2024-02-13T20:00:00.689Z,100195.56
2024-02-13T20:02:27.586Z,100206.97
2024-02-13T20:04:54.409Z,100209.44
2024-02-13T20:07:21.316Z,100212.50
2024-02-13T20:09:48.138Z,100209.97
2024-02-13T20:12:15.045Z,100212.00
2024-02-13T20:14:41.909Z,100225.41
2024-02-13T20:17:08.876Z,100225.41
2024-02-13T20:19:35.745Z,100219.72
2024-02-13T20:22:02.648Z,100219.25
2024-02-13T20:24:32.497Z,100219.38
2024-02-13T20:27:00.269Z,100225.09
2024-02-13T20:29:27.137Z,100228.66
2024-02-13T20:31:54.034Z,100226.78
2024-02-13T20:34:21.082Z,100235.47
2024-02-13T20:36:48.042Z,100233.81
2024-02-13T20:39:14.935Z,100235.19
2024-02-13T20:41:41.789Z,100238.03
2024-02-13T20:44:08.658Z,100243.06
2024-02-13T20:46:35.491Z,100247.56
2024-02-13T20:49:02.963Z,100242.34
2024-02-13T20:51:30.007Z,100250.91
2024-02-13T20:53:57.280Z,100252.94
2024-02-13T20:56:25.262Z,100251.59
2024-02-13T20:58:52.214Z,100259.31
2024-02-13T21:01:19.209Z,100259.63
2024-02-13T21:03:46.286Z,100258.94
2024-02-13T21:06:13.196Z,100265.47
2024-02-13T21:08:40.153Z,100257.28
2024-02-13T21:11:07.026Z,100264.66
2024-02-13T21:13:33.928Z,100266.31
2024-02-13T21:16:00.818Z,100283.75
2024-02-13T21:18:27.682Z,100275.47
2024-02-13T21:20:54.647Z,100262.97
2024-02-13T21:23:21.547Z,100278.72
2024-02-13T21:25:48.374Z,100283.06
2024-02-13T21:28:15.286Z,100279.75
2024-02-13T21:30:42.173Z,100277.03
2024-02-13T21:33:09.142Z,100275.38
2024-02-13T21:35:36.095Z,100291.78
2024-02-13T21:38:02.945Z,100297.00
2024-02-13T21:40:29.856Z,100295.47
2024-02-13T21:42:57.083Z,100292.97
2024-02-13T21:45:23.870Z,100293.78
2024-02-13T21:47:50.749Z,100295.31
2024-02-13T21:50:17.786Z,100296.16
2024-02-13T21:52:44.584Z,100286.47
2024-02-13T21:55:11.412Z,100303.56
2024-02-13T21:57:38.232Z,100303.91
2024-02-13T22:00:05.433Z,100301.88
2024-02-13T22:02:32.597Z,100299.88
2024-02-13T22:04:59.458Z,100297.88
2024-02-13T22:07:26.284Z,100304.56
2024-02-13T22:09:53.127Z,100303.91
2024-02-13T22:12:19.975Z,100308.94
2024-02-13T22:14:46.849Z,100307.25
2024-02-13T22:17:13.668Z,100309.28
2024-02-13T22:19:40.649Z,100318.31
2024-02-13T22:22:07.605Z,100329.34
2024-02-13T22:24:34.459Z,100324.34
2024-02-13T22:27:01.407Z,100324.50
2024-02-13T22:29:28.374Z,100328.00
2024-02-13T22:31:55.182Z,100324.66
2024-02-13T22:34:22.108Z,100336.06
2024-02-13T22:36:48.915Z,100347.91
2024-02-13T22:39:15.699Z,100350.09
2024-02-13T22:41:42.616Z,100353.13
2024-02-13T22:44:09.512Z,100360.66
2024-02-13T22:46:36.349Z,100356.47
2024-02-13T22:49:03.137Z,100354.78
2024-02-13T22:51:29.970Z,100361.81
2024-02-13T22:53:56.874Z,100360.13
2024-02-13T22:56:23.804Z,100362.13
2024-02-13T22:58:50.652Z,100352.44
2024-02-13T23:01:17.518Z,100344.06
2024-02-13T23:03:44.388Z,100335.69
2024-02-13T23:06:11.286Z,100343.06
2024-02-13T23:08:38.098Z,100355.09
2024-02-13T23:11:04.980Z,100339.03
2024-02-13T23:13:37.779Z,100338.38
2024-02-13T23:16:09.647Z,100343.06
2024-02-13T23:18:36.602Z,100337.88
2024-02-13T23:21:03.633Z,100321.00
2024-02-13T23:23:30.876Z,100327.31
2024-02-13T23:25:57.886Z,100334.03
2024-02-13T23:28:24.748Z,100322.66
2024-02-13T23:30:51.584Z,100325.34
2024-02-13T23:33:18.514Z,100331.00
2024-02-13T23:35:45.503Z,100332.38
2024-02-13T23:38:12.358Z,100330.84
2024-02-13T23:40:39.153Z,100331.34
2024-02-13T23:43:05.980Z,100327.31
2024-02-13T23:45:32.779Z,100337.53
2024-02-13T23:47:59.689Z,100340.41
2024-02-13T23:50:26.638Z,100351.09
2024-02-13T23:52:53.570Z,100363.47
2024-02-13T23:55:20.396Z,100361.78
2024-02-13T23:57:47.375Z,100362.06
